Time;durP1;ratioP1;P1;durP2;ratioP2;P2;SDS_P1;SDS_P2;PMS_P1;PMS_P2;Temp;Humidity;BMP_temperature;BMP_pressure;BME280_temperature;BME280_humidity;BME280_pressure;Samples;Min_cycle;Max_cycle;Signal;HPM_P1;HPM_P2
2022/10/01 00:00:50;;;;;;;;;4.00;3.00;;;;;14.38;67.45;100432.22;5038704;28;46584;-81
2022/10/01 00:03:16;;;;;;;;;2.50;2.50;;;;;14.36;67.41;100428.78;5039013;28;45948;-81
2022/10/01 00:05:41;;;;;;;;;2.00;2.00;;;;;14.42;67.69;100426.84;5020142;28;45395;-81
2022/10/01 00:08:07;;;;;;;;;3.00;3.00;;;;;14.41;67.90;100414.50;5021902;28;45506;-81
2022/10/01 00:10:32;;;;;;;;;3.33;3.33;;;;;14.45;67.56;100424.09;5041343;28;45660;-84
2022/10/01 00:12:58;;;;;;;;;3.00;3.00;;;;;14.40;67.30;100418.03;5038612;28;45379;-79
2022/10/01 00:15:25;;;;;;;;;4.00;2.33;;;;;14.47;67.42;100421.44;5039896;28;45363;-78
2022/10/01 00:17:51;;;;;;;;;6.50;6.50;;;;;14.39;67.80;100400.44;5038128;28;45730;-78
2022/10/01 00:20:17;;;;;;;;;2.67;2.67;;;;;14.42;67.53;100399.47;5037526;28;47637;-78
2022/10/01 00:22:42;;;;;;;;;3.00;3.00;;;;;14.53;67.62;100405.41;5038393;28;45872;-78
2022/10/01 00:25:09;;;;;;;;;2.00;2.00;;;;;14.54;67.51;100413.31;5024079;28;45486;-78
2022/10/01 00:27:35;;;;;;;;;2.00;2.00;;;;;14.53;67.95;100394.81;5020085;28;46121;-78
2022/10/01 00:30:03;;;;;;;;;3.00;3.00;;;;;14.54;68.27;100389.50;5039303;28;46190;-78
2022/10/01 00:32:31;;;;;;;;;3.00;3.00;;;;;14.58;67.98;100390.28;5038172;28;45399;-79
2022/10/01 00:34:57;;;;;;;;;4.00;2.33;;;;;14.58;68.06;100406.16;5039288;28;45738;-78
2022/10/01 00:37:23;;;;;;;;;4.00;3.00;;;;;14.58;68.60;100405.31;5040418;28;45765;-78
2022/10/01 00:39:48;;;;;;;;;3.00;3.00;;;;;14.51;68.97;100391.28;5040291;28;45711;-79
2022/10/01 00:42:18;;;;;;;;;3.00;3.00;;;;;14.58;69.37;100402.66;5039607;28;45381;-78
2022/10/01 00:44:44;;;;;;;;;2.67;2.67;;;;;14.55;68.40;100393.88;5041495;28;45447;-78
2022/10/01 00:47:17;;;;;;;;;2.33;2.33;;;;;14.55;68.50;100403.59;5040942;28;45484;-78
2022/10/01 00:49:43;;;;;;;;;3.33;3.00;;;;;14.53;69.23;100373.63;5040265;28;48084;-77
2022/10/01 00:52:14;;;;;;;;;3.33;3.00;;;;;14.45;68.72;100376.44;5039020;28;45271;-78
2022/10/01 00:54:56;;;;;;;;;2.00;2.00;;;;;14.49;69.42;100404.59;5022974;28;45393;-78
2022/10/01 00:57:25;;;;;;;;;3.00;3.00;;;;;14.46;70.38;100380.84;5037718;28;45411;-78
2022/10/01 00:59:53;;;;;;;;;5.00;4.00;;;;;14.44;70.72;100380.00;5024835;28;48544;-79
2022/10/01 01:02:19;;;;;;;;;1.67;1.00;;;;;14.36;70.23;100386.41;5022240;28;45302;-78
2022/10/01 01:04:44;;;;;;;;;0.00;0.00;;;;;14.32;70.71;100369.69;5022078;28;45453;-78
2022/10/01 01:07:10;;;;;;;;;2.00;2.00;;;;;14.31;71.03;100397.97;5022489;28;46528;-78
2022/10/01 01:09:42;;;;;;;;;4.00;4.00;;;;;14.31;71.32;100378.56;5020727;28;48121;-78
2022/10/01 01:12:40;;;;;;;;;1.00;1.00;;;;;14.31;71.27;100375.91;5022332;28;45224;-78
2022/10/01 01:15:24;;;;;;;;;27.00;23.00;;;;;14.31;71.67;100397.09;5022068;28;45553;-78
2022/10/01 01:18:18;;;;;;;;;3.00;3.00;;;;;14.30;72.03;100376.81;5022122;28;45446;-78
2022/10/01 01:21:09;;;;;;;;;4.00;4.00;;;;;14.31;72.04;100390.03;5027828;28;45431;-78
2022/10/01 01:24:09;;;;;;;;;3.00;3.00;;;;;14.33;71.63;100380.28;5030351;28;45514;-78
2022/10/01 01:27:05;;;;;;;;;2.33;2.33;;;;;14.32;72.00;100359.97;5027166;28;45432;-78
2022/10/01 01:29:38;;;;;;;;;2.33;2.00;;;;;14.35;71.93;100353.72;5037276;28;45553;-78
2022/10/01 01:32:11;;;;;;;;;2.25;2.25;;;;;14.38;72.13;100360.72;5040924;28;45374;-78
2022/10/01 01:34:42;;;;;;;;;0.25;0.25;;;;;14.39;72.29;100349.25;5039231;28;45256;-78
2022/10/01 01:37:10;;;;;;;;;1.00;0.00;;;;;14.41;72.52;100344.78;5027436;28;45493;-78
2022/10/01 01:39:40;;;;;;;;;0.00;0.00;;;;;14.42;72.50;100331.47;5040546;28;45574;-78
2022/10/01 01:42:13;;;;;;;;;1.00;1.00;;;;;14.45;72.57;100343.78;5039077;28;47095;-78
2022/10/01 01:44:44;;;;;;;;;1.67;1.67;;;;;14.46;72.46;100335.81;5039118;28;45258;-78
2022/10/01 01:47:12;;;;;;;;;2.00;2.00;;;;;14.47;72.51;100337.53;5040662;28;45211;-78
2022/10/01 01:49:38;;;;;;;;;1.67;1.00;;;;;14.50;73.12;100342.75;5039371;28;45487;-78
2022/10/01 01:52:14;;;;;;;;;3.00;1.00;;;;;14.58;73.03;100344.38;5039937;28;46077;-78
2022/10/01 01:54:40;;;;;;;;;1.00;1.00;;;;;14.60;72.63;100338.13;5021808;28;45491;-78
2022/10/01 01:57:08;;;;;;;;;3.33;2.33;;;;;14.64;72.92;100347.72;5021219;28;45430;-77
2022/10/01 01:59:34;;;;;;;;;0.33;0.33;;;;;14.64;72.55;100333.59;5026687;28;45419;-78
2022/10/01 02:02:00;;;;;;;;;0.33;0.33;;;;;14.69;72.52;100329.91;5034187;28;45304;-78
2022/10/01 02:04:48;;;;;;;;;2.00;2.00;;;;;14.72;72.48;100337.75;5027422;28;45308;-78
2022/10/01 02:07:34;;;;;;;;;2.00;2.00;;;;;14.74;72.51;100345.69;5039889;28;45538;-77
2022/10/01 02:10:28;;;;;;;;;1.00;1.00;;;;;14.78;72.47;100337.63;5037777;28;45436;-78
2022/10/01 02:13:24;;;;;;;;;1.00;1.00;;;;;14.82;72.99;100337.53;5040153;28;46228;-78
2022/10/01 02:15:49;;;;;;;;;2.00;2.00;;;;;14.83;72.92;100332.16;5045433;28;45433;-79
2022/10/01 02:18:42;;;;;;;;;0.00;0.00;;;;;14.81;72.72;100323.41;5025471;28;45336;-78
2022/10/01 02:21:31;;;;;;;;;0.67;0.67;;;;;14.82;72.72;100316.34;5020475;28;45402;-78
2022/10/01 02:23:57;;;;;;;;;0.00;0.00;;;;;14.87;72.65;100322.38;5023887;28;46170;-78
2022/10/01 02:26:25;;;;;;;;;0.00;0.00;;;;;14.90;72.69;100322.28;5021985;28;45367;-79
2022/10/01 02:28:54;;;;;;;;;2.00;2.00;;;;;14.90;72.84;100301.94;5021266;28;45204;-78
2022/10/01 02:31:22;;;;;;;;;1.00;1.00;;;;;14.93;72.98;100312.44;5025305;28;45544;-79
2022/10/01 02:33:51;;;;;;;;;1.67;1.67;;;;;14.96;72.77;100327.41;5055482;28;47273;-78
2022/10/01 02:36:20;;;;;;;;;0.00;0.00;;;;;14.96;72.71;100314.16;5027160;28;45257;-79
2022/10/01 02:38:49;;;;;;;;;1.00;1.00;;;;;14.97;72.81;100308.81;5040245;28;45374;-78
2022/10/01 02:41:22;;;;;;;;;1.00;0.00;;;;;15.04;72.78;100316.59;5039902;28;45501;-78
2022/10/01 02:44:09;;;;;;;;;1.00;1.00;;;;;15.07;72.63;100322.66;5024875;28;47312;-79
2022/10/01 02:46:49;;;;;;;;;1.00;1.00;;;;;15.11;72.68;100307.53;5039855;28;45336;-78
2022/10/01 02:49:14;;;;;;;;;0.00;0.00;;;;;15.14;72.87;100302.16;5033404;28;45380;-78
2022/10/01 02:51:52;;;;;;;;;2.00;2.00;;;;;15.17;73.00;100296.75;5031110;28;45422;-79
2022/10/01 02:54:26;;;;;;;;;0.33;0.33;;;;;15.20;73.07;100294.00;5020866;28;47184;-79
2022/10/01 02:59:35;;;;;;;;;0.00;0.00;;;;;15.25;73.11;100281.47;5027203;28;45418;-79
2022/10/01 03:02:01;;;;;;;;;2.00;2.00;;;;;15.25;72.87;100276.16;5023066;28;46679;-79
2022/10/01 03:04:26;;;;;;;;;1.67;0.00;;;;;15.31;72.86;100281.28;5040047;28;45523;-79
2022/10/01 03:06:52;;;;;;;;;0.00;0.00;;;;;15.31;72.81;100278.63;5024926;28;45296;-78
2022/10/01 03:09:17;;;;;;;;;0.00;0.00;;;;;15.26;72.93;100256.69;5039882;28;45441;-78
2022/10/01 03:11:42;;;;;;;;;0.00;0.00;;;;;15.33;73.17;100274.16;5039518;28;45569;-78
2022/10/01 03:14:09;;;;;;;;;0.33;0.33;;;;;15.34;72.98;100275.00;5039717;28;45424;-78
2022/10/01 03:16:35;;;;;;;;;1.33;1.00;;;;;15.35;72.60;100234.31;5039408;28;45278;-79
2022/10/01 03:19:00;;;;;;;;;1.00;1.00;;;;;15.35;72.87;100274.13;5039572;28;45196;-78
2022/10/01 03:21:26;;;;;;;;;0.00;0.00;;;;;15.35;72.80;100282.94;5040796;28;45413;-78
2022/10/01 03:23:51;;;;;;;;;0.00;0.00;;;;;15.39;72.73;100268.63;5024642;28;46980;-78
2022/10/01 03:26:17;;;;;;;;;0.00;0.00;;;;;15.38;73.10;100277.53;5038197;28;45322;-78
2022/10/01 03:28:42;;;;;;;;;0.00;0.00;;;;;15.41;73.06;100264.16;5033885;28;45170;-77
2022/10/01 03:31:09;;;;;;;;;1.00;1.00;;;;;15.42;73.33;100254.41;5023250;28;45420;-79
2022/10/01 03:33:34;;;;;;;;;0.00;0.00;;;;;15.49;73.14;100273.69;5023653;28;46918;-78
2022/10/01 03:36:01;;;;;;;;;0.00;0.00;;;;;15.48;73.06;100246.28;5022814;28;45492;-78
2022/10/01 03:38:26;;;;;;;;;0.00;0.00;;;;;15.51;73.06;100275.38;5024001;28;45350;-78
2022/10/01 03:40:52;;;;;;;;;0.00;0.00;;;;;15.45;73.36;100246.38;5027322;28;45448;-78
2022/10/01 03:43:17;;;;;;;;;1.00;1.00;;;;;15.48;73.64;100253.38;5043414;28;45909;-78
2022/10/01 03:45:42;;;;;;;;;0.00;0.00;;;;;15.46;73.60;100256.06;5039309;28;45424;-79
2022/10/01 03:48:08;;;;;;;;;0.00;0.00;;;;;15.49;74.20;100279.84;5033881;28;45334;-78
2022/10/01 03:50:35;;;;;;;;;0.00;0.00;;;;;15.50;73.94;100264.78;5042348;28;45524;-78
2022/10/01 03:53:00;;;;;;;;;1.00;1.00;;;;;15.50;74.01;100281.56;5042181;28;47927;-78
2022/10/01 03:55:26;;;;;;;;;0.00;0.00;;;;;15.52;74.15;100268.28;5041903;28;45236;-78
2022/10/01 03:57:51;;;;;;;;;0.00;0.00;;;;;15.50;74.12;100276.25;5041477;28;45197;-78
2022/10/01 04:00:17;;;;;;;;;0.67;0.67;;;;;15.55;74.44;100314.13;5037870;28;45517;-78
2022/10/01 04:02:43;;;;;;;;;0.00;0.00;;;;;15.55;74.86;100295.56;5041297;28;47249;-79
2022/10/01 04:05:09;;;;;;;;;0.00;0.00;;;;;15.54;74.72;100299.16;5040071;28;45718;-79
2022/10/01 04:07:34;;;;;;;;;0.00;0.00;;;;;15.55;74.89;100306.19;5041396;28;45477;-79
2022/10/01 04:10:00;;;;;;;;;2.00;1.00;;;;;15.56;75.01;100313.25;5042580;28;45419;-78
2022/10/01 04:12:25;;;;;;;;;1.00;1.00;;;;;15.61;75.44;100321.03;5032101;28;46018;-78
2022/10/01 04:14:51;;;;;;;;;0.00;0.00;;;;;15.63;75.38;100314.75;5038290;28;45405;-78
2022/10/01 04:17:16;;;;;;;;;0.00;0.00;;;;;15.68;75.48;100324.38;5042569;28;45260;-78
2022/10/01 04:19:41;;;;;;;;;1.00;1.00;;;;;15.71;75.27;100324.31;5042233;28;45498;-78
2022/10/01 04:22:07;;;;;;;;;0.00;0.00;;;;;15.72;75.64;100337.53;5042793;28;46781;-78
2022/10/01 04:24:32;;;;;;;;;0.00;0.00;;;;;15.70;76.02;100330.53;5027079;28;45324;-78
2022/10/01 04:26:57;;;;;;;;;0.00;0.00;;;;;15.71;75.82;100338.44;5042813;28;45281;-78
2022/10/01 04:29:23;;;;;;;;;0.00;0.00;;;;;15.71;76.09;100332.28;5042237;28;45548;-78
2022/10/01 04:31:48;;;;;;;;;1.00;1.00;;;;;15.75;76.24;100350.72;5042195;28;46335;-79
2022/10/01 04:34:13;;;;;;;;;0.00;0.00;;;;;15.73;76.01;100339.28;5040942;28;45363;-79
2022/10/01 04:36:39;;;;;;;;;0.00;0.00;;;;;15.78;75.84;100345.31;5042277;28;45359;-79
2022/10/01 04:39:04;;;;;;;;;2.00;1.67;;;;;15.79;76.30;100343.50;5039950;28;45167;-79
2022/10/01 04:41:30;;;;;;;;;0.33;0.00;;;;;15.80;76.44;100354.09;5030677;28;45869;-79
2022/10/01 04:43:57;;;;;;;;;0.00;0.00;;;;;15.87;76.23;100365.38;5041842;28;45363;-78
2022/10/01 04:46:23;;;;;;;;;0.00;0.00;;;;;15.90;76.15;100361.75;5040677;28;45336;-78
2022/10/01 04:48:49;;;;;;;;;0.67;0.67;;;;;15.94;76.35;100366.94;5040322;28;46218;-78
2022/10/01 04:51:15;;;;;;;;;1.00;1.00;;;;;15.98;76.59;100373.00;5041745;28;46290;-78
2022/10/01 04:53:41;;;;;;;;;0.00;0.00;;;;;16.02;76.24;100383.47;5042247;28;45379;-78
2022/10/01 04:56:06;;;;;;;;;0.00;0.00;;;;;16.09;75.91;100390.34;5037482;28;45749;-79
2022/10/01 04:58:32;;;;;;;;;0.00;0.00;;;;;16.10;75.82;100389.41;5027275;28;45478;-78
2022/10/01 05:00:57;;;;;;;;;1.00;0.00;;;;;16.18;75.93;100396.28;5041691;28;45319;-78
2022/10/01 05:03:22;;;;;;;;;0.00;0.00;;;;;16.21;75.89;100383.75;5040003;28;45459;-78
2022/10/01 05:05:48;;;;;;;;;0.00;0.00;;;;;16.23;75.93;100405.81;5037538;28;45638;-78
2022/10/01 05:08:13;;;;;;;;;0.00;0.00;;;;;16.20;75.48;100381.13;5035132;28;45407;-77
2022/10/01 05:10:39;;;;;;;;;0.00;0.00;;;;;16.24;75.85;100377.47;5041627;28;45429;-78
2022/10/01 05:13:04;;;;;;;;;1.00;0.00;;;;;16.27;75.93;100390.66;5041546;28;45282;-79
2022/10/01 05:15:30;;;;;;;;;0.00;0.00;;;;;16.29;75.76;100410.94;5057157;28;45408;-78
2022/10/01 05:17:55;;;;;;;;;0.67;0.67;;;;;16.30;75.72;100399.41;5040756;28;45476;-78
2022/10/01 05:20:25;;;;;;;;;0.00;0.00;;;;;16.36;75.56;100408.06;5041926;28;45501;-77
2022/10/01 05:22:51;;;;;;;;;0.00;0.00;;;;;16.40;75.44;100420.34;5041338;28;45562;-79
2022/10/01 05:25:18;;;;;;;;;1.00;1.00;;;;;16.37;75.45;100410.69;5031531;28;45337;-78
2022/10/01 05:27:44;;;;;;;;;0.33;0.33;;;;;16.42;75.16;100416.72;5035318;28;45674;-78
2022/10/01 05:30:12;;;;;;;;;1.33;1.33;;;;;16.42;75.14;100413.19;5041196;28;45342;-79
2022/10/01 05:32:38;;;;;;;;;0.00;0.00;;;;;16.42;75.19;100422.03;5039727;28;45204;-79
2022/10/01 05:35:05;;;;;;;;;1.33;1.33;;;;;16.44;75.03;100422.84;5041235;28;45338;-79
2022/10/01 05:37:31;;;;;;;;;0.00;0.00;;;;;16.45;74.99;100426.38;5041300;28;45545;-79
2022/10/01 05:39:57;;;;;;;;;0.00;0.00;;;;;16.45;74.81;100437.88;5039816;28;47060;-79
2022/10/01 05:42:22;;;;;;;;;0.00;0.00;;;;;16.46;74.64;100447.56;5039632;28;45577;-79
2022/10/01 05:44:48;;;;;;;;;0.00;0.00;;;;;16.49;74.80;100451.91;5033685;28;45529;-79
2022/10/01 05:47:15;;;;;;;;;0.00;0.00;;;;;16.50;74.96;100457.19;5038361;28;45646;-78
2022/10/01 05:49:43;;;;;;;;;1.00;1.00;;;;;16.52;74.52;100467.78;5040803;28;46568;-79
2022/10/01 05:52:10;;;;;;;;;2.00;1.00;;;;;16.53;74.36;100467.72;5040726;28;45239;-78
2022/10/01 05:54:36;;;;;;;;;1.00;1.00;;;;;16.53;74.64;100478.34;5041118;28;45404;-77
2022/10/01 05:57:02;;;;;;;;;1.00;1.00;;;;;16.51;74.64;100471.34;5039351;28;45541;-77
2022/10/01 05:59:28;;;;;;;;;2.33;1.00;;;;;16.54;74.17;100476.53;5037008;28;45477;-78
2022/10/01 06:01:53;;;;;;;;;0.00;0.00;;;;;16.55;74.28;100486.28;5040495;28;45437;-79
2022/10/01 06:04:18;;;;;;;;;0.00;0.00;;;;;16.56;74.39;100487.13;5040866;28;45413;-78
2022/10/01 06:06:44;;;;;;;;;1.00;0.67;;;;;16.56;74.06;100485.34;5039121;28;46238;-79
2022/10/01 06:09:20;;;;;;;;;1.00;1.00;;;;;16.53;74.16;100483.66;5040043;28;45327;-78
2022/10/01 06:11:48;;;;;;;;;0.33;0.33;;;;;16.55;74.26;100499.56;5040435;28;46189;-78
2022/10/01 06:14:13;;;;;;;;;0.00;0.00;;;;;16.55;74.13;100504.88;5039304;28;45430;-78
2022/10/01 06:16:39;;;;;;;;;0.00;0.00;;;;;16.58;74.11;100512.75;5038637;28;45789;-78
2022/10/01 06:19:04;;;;;;;;;0.00;0.00;;;;;16.60;73.86;100520.66;5040567;28;46409;-79
2022/10/01 06:21:30;;;;;;;;;3.33;1.00;;;;;16.58;73.65;100519.84;5040257;28;45276;-78
2022/10/01 06:23:56;;;;;;;;;0.00;0.00;;;;;16.54;73.55;100512.00;5038713;28;45354;-78
2022/10/01 06:26:22;;;;;;;;;0.00;0.00;;;;;16.58;73.62;100517.19;5036567;28;45426;-79
2022/10/01 06:28:49;;;;;;;;;1.00;1.00;;;;;16.57;73.34;100520.75;5029412;28;48528;-79
2022/10/01 06:31:14;;;;;;;;;3.00;2.00;;;;;16.62;73.31;100532.97;5040498;28;45348;-79
2022/10/01 06:33:40;;;;;;;;;2.00;1.00;;;;;16.61;73.62;100527.72;5040230;28;45360;-78
2022/10/01 06:36:05;;;;;;;;;2.33;0.67;;;;;16.62;73.11;100532.97;5040264;28;45367;-78
2022/10/01 06:38:30;;;;;;;;;2.00;2.00;;;;;16.65;73.04;100535.56;5040245;28;45634;-79
2022/10/01 06:40:58;;;;;;;;;3.00;0.00;;;;;16.65;72.74;100532.00;5040098;28;45232;-79
2022/10/01 06:43:25;;;;;;;;;1.00;1.00;;;;;16.67;72.56;100540.81;5028271;28;45415;-79
2022/10/01 06:45:52;;;;;;;;;1.00;1.00;;;;;16.68;72.48;100540.78;5037163;28;45349;-79
2022/10/01 06:48:18;;;;;;;;;0.33;0.00;;;;;16.69;72.24;100538.97;5028601;28;45440;-79
2022/10/01 06:50:45;;;;;;;;;2.67;2.00;;;;;16.66;72.40;100528.44;5036094;28;45298;-79
2022/10/01 06:53:12;;;;;;;;;1.00;1.00;;;;;16.67;72.02;100533.69;5040010;28;45247;-78
2022/10/01 06:55:38;;;;;;;;;2.00;1.00;;;;;16.69;71.95;100546.97;5037839;28;45268;-79
2022/10/01 06:58:19;;;;;;;;;2.00;2.00;;;;;16.71;71.72;100555.75;5037972;28;46360;-78
2022/10/01 07:00:44;;;;;;;;;1.00;1.00;;;;;16.70;71.87;100548.69;5037188;28;45390;-79
2022/10/01 07:03:15;;;;;;;;;1.00;1.00;;;;;16.73;71.51;100554.78;5038257;28;45181;-80
2022/10/01 07:05:42;;;;;;;;;1.00;1.00;;;;;16.76;71.23;100562.66;5025024;28;45656;-79
2022/10/01 07:08:07;;;;;;;;;0.67;0.67;;;;;16.78;70.89;100565.28;5034672;28;47323;-78
2022/10/01 07:10:34;;;;;;;;;2.67;1.33;;;;;16.81;70.64;100577.63;5039114;28;45339;-79
2022/10/01 07:13:14;;;;;;;;;2.00;1.00;;;;;16.84;69.90;100598.78;5039526;28;45337;-78
2022/10/01 07:15:40;;;;;;;;;2.00;2.00;;;;;16.87;69.84;100609.34;5034544;28;45390;-79
2022/10/01 07:18:08;;;;;;;;;1.67;1.33;;;;;16.87;69.82;100601.38;5034590;28;45958;-79
2022/10/01 07:20:34;;;;;;;;;2.00;2.00;;;;;16.88;69.45;100595.13;5037771;28;45449;-79
2022/10/01 07:23:00;;;;;;;;;2.67;2.67;;;;;16.90;69.29;100599.47;5037368;28;45261;-80
2022/10/01 07:25:26;;;;;;;;;4.00;3.00;;;;;16.93;69.62;100610.00;5038876;28;45220;-79
2022/10/01 07:28:03;;;;;;;;;2.00;2.00;;;;;16.95;69.39;100616.16;5037618;28;47528;-80
2022/10/01 07:30:29;;;;;;;;;1.00;1.00;;;;;17.02;69.24;100626.59;5039192;28;45244;-79
2022/10/01 07:32:54;;;;;;;;;4.00;3.00;;;;;17.05;69.19;100629.13;5039148;28;45563;-78
2022/10/01 07:35:20;;;;;;;;;1.00;0.00;;;;;17.03;69.09;100626.56;5037714;28;45768;-79
2022/10/01 07:37:50;;;;;;;;;2.67;1.00;;;;;17.11;68.78;100639.59;5038885;28;45421;-79
2022/10/01 07:40:17;;;;;;;;;1.33;1.33;;;;;17.08;68.69;100637.91;5034797;28;45172;-80
2022/10/01 07:42:43;;;;;;;;;2.67;1.00;;;;;17.11;69.53;100632.50;5031185;28;45261;-80
2022/10/01 07:45:15;;;;;;;;;1.00;1.00;;;;;17.16;69.08;100632.31;5031044;28;45265;-80
2022/10/01 07:47:43;;;;;;;;;2.00;1.00;;;;;17.13;69.32;100629.75;5039586;28;45409;-79
2022/10/01 07:50:08;;;;;;;;;8.25;8.25;;;;;17.20;69.41;100641.94;5038954;28;45224;-81
2022/10/01 07:52:33;;;;;;;;;5.00;2.00;;;;;17.24;69.47;100645.38;5032774;28;45317;-80
2022/10/01 07:54:59;;;;;;;;;3.33;2.67;;;;;17.27;69.48;100647.94;5031043;28;45476;-80
2022/10/01 07:57:24;;;;;;;;;1.00;0.00;;;;;17.32;69.16;100651.31;5037075;28;47984;-79
2022/10/01 07:59:49;;;;;;;;;1.00;1.00;;;;;17.33;69.08;100653.94;5035956;28;45435;-81
2022/10/01 08:02:17;;;;;;;;;3.00;3.00;;;;;17.39;68.78;100661.69;5037825;28;45383;-81
2022/10/01 08:07:30;;;;;;;;;1.00;1.00;;;;;17.52;68.49;100677.28;5027439;28;45283;-81
2022/10/01 08:09:56;;;;;;;;;2.00;2.00;;;;;17.55;68.16;100672.72;5041706;28;45303;-81
2022/10/01 08:12:23;;;;;;;;;2.00;1.00;;;;;17.55;67.88;100669.19;5042254;28;45237;-80
2022/10/01 08:14:48;;;;;;;;;2.67;1.00;;;;;17.61;67.50;100679.63;5042025;28;45242;-79
2022/10/01 08:17:14;;;;;;;;;2.00;1.33;;;;;17.61;67.26;100683.19;5032549;28;45413;-79
2022/10/01 08:19:39;;;;;;;;;0.33;0.33;;;;;17.63;67.28;100685.75;5035883;28;45190;-80
2022/10/01 08:22:06;;;;;;;;;3.33;1.33;;;;;17.60;67.31;100676.09;5041329;28;45469;-78
2022/10/01 08:24:33;;;;;;;;;3.00;3.00;;;;;17.65;66.90;100681.25;5039234;28;45375;-80
2022/10/01 08:26:59;;;;;;;;;2.00;2.00;;;;;17.61;66.86;100687.59;5040316;28;46479;-79
2022/10/01 08:29:24;;;;;;;;;4.00;2.67;;;;;17.62;66.74;100692.03;5041463;28;45853;-80
2022/10/01 08:31:50;;;;;;;;;3.00;1.00;;;;;17.59;66.74;100693.00;5041935;28;45224;-80
2022/10/01 08:34:15;;;;;;;;;4.00;1.33;;;;;17.61;66.48;100701.81;5043511;28;45494;-80
2022/10/01 08:36:41;;;;;;;;;2.00;2.00;;;;;17.57;66.37;100692.16;5043461;28;45365;-81
2022/10/01 08:39:06;;;;;;;;;2.00;1.00;;;;;17.59;66.57;100697.47;5058564;28;45254;-80
2022/10/01 08:41:50;;;;;;;;;2.67;2.33;;;;;17.63;66.26;100710.59;5042971;28;45204;-81
2022/10/01 08:44:26;;;;;;;;;4.00;2.00;;;;;17.64;66.30;100715.00;5040371;28;45733;-80
2022/10/01 08:46:58;;;;;;;;;2.67;1.00;;;;;17.68;66.33;100718.44;5039748;28;47144;-81
2022/10/01 08:49:36;;;;;;;;;3.00;2.33;;;;;17.75;66.11;100727.06;5040227;28;45353;-81
2022/10/01 08:52:20;;;;;;;;;3.00;2.00;;;;;17.81;65.96;100737.56;5027741;28;45386;-82
2022/10/01 08:55:02;;;;;;;;;1.33;1.00;;;;;17.86;65.88;100738.28;5032201;28;45307;-82
2022/10/01 08:57:40;;;;;;;;;3.33;3.00;;;;;17.91;65.33;100739.00;5039197;28;46996;-81
2022/10/01 09:00:12;;;;;;;;;2.00;1.00;;;;;17.94;65.70;100740.69;5037350;28;45248;-82
2022/10/01 09:02:40;;;;;;;;;4.00;2.33;;;;;17.96;65.82;100744.16;5040983;28;45443;-83
2022/10/01 09:05:23;;;;;;;;;3.33;3.00;;;;;18.03;65.59;100748.34;5039357;28;45738;-82
2022/10/01 09:08:01;;;;;;;;;2.00;2.00;;;;;18.09;65.63;100756.13;5039145;28;47811;-82
2022/10/01 09:10:48;;;;;;;;;2.33;2.00;;;;;18.11;65.34;100758.75;5039520;28;45603;-82
2022/10/01 09:13:32;;;;;;;;;5.00;4.00;;;;;18.13;65.43;100764.91;5026562;28;45422;-83
2022/10/01 09:16:46;;;;;;;;;1.67;0.67;;;;;18.14;65.47;100766.63;5038989;28;45938;-83
2022/10/01 09:19:36;;;;;;;;;5.00;2.33;;;;;18.16;65.40;100764.78;5029054;28;47658;-87
2022/10/01 09:22:14;;;;;;;;;2.33;2.00;;;;;18.15;65.30;100773.69;5048332;28;45910;-83
2022/10/01 09:25:00;;;;;;;;;5.33;3.33;;;;;18.13;65.41;100772.91;5039223;28;45536;-87
2022/10/01 09:27:27;;;;;;;;;5.33;3.33;;;;;18.16;65.22;100781.66;5033070;28;45513;-85
2022/10/01 09:30:03;;;;;;;;;2.00;0.33;;;;;18.19;65.48;100788.66;5032167;28;47154;-89
2022/10/01 09:32:52;;;;;;;;;3.67;3.00;;;;;18.22;65.33;100793.88;5038810;28;45397;-90
2022/10/01 09:35:31;;;;;;;;;5.00;3.67;;;;;18.23;65.32;100799.19;5035175;28;45224;-91
2022/10/01 09:38:05;;;;;;;;;4.33;3.00;;;;;18.27;64.97;100802.59;5040390;28;45410;-90
2022/10/01 09:40:40;;;;;;;;;4.67;2.00;;;;;18.25;64.76;100799.97;5045618;28;47457;-89
2022/10/01 09:43:10;;;;;;;;;4.00;2.33;;;;;18.29;64.75;100792.75;5057478;28;44764;-88
2022/10/01 09:45:37;;;;;;;;;15.50;10.75;;;;;18.33;64.80;100805.03;5045006;28;44785;-89
2022/10/01 09:48:28;;;;;;;;;2.00;2.00;;;;;18.38;64.63;100811.09;5046528;28;45436;-91
2022/10/01 09:51:05;;;;;;;;;7.00;5.00;;;;;18.40;64.35;100806.56;5040817;28;48463;-89
2022/10/01 09:54:20;;;;;;;;;4.00;3.67;;;;;18.41;64.25;100805.63;5037166;28;45535;-89
2022/10/01 09:56:53;;;;;;;;;5.00;3.00;;;;;18.44;64.40;100816.22;5024916;28;45689;-90
2022/10/01 10:00:04;;;;;;;;;3.00;3.00;;;;;18.47;64.46;100812.53;5031528;28;45724;-90
2022/10/01 10:02:40;;;;;;;;;4.67;4.67;;;;;18.52;64.24;100819.50;5018400;28;47822;-89
2022/10/01 10:05:20;;;;;;;;;3.67;2.00;;;;;18.55;64.11;100814.94;5026395;28;45289;-90
2022/10/01 10:07:50;;;;;;;;;4.67;3.00;;;;;18.68;64.03;100827.81;5034999;28;45399;-90
2022/10/01 10:10:59;;;;;;;;;4.33;4.33;;;;;18.77;63.41;100833.78;5031903;28;45379;-90
2022/10/01 10:13:33;;;;;;;;;4.67;2.67;;;;;18.86;63.17;100833.41;5010542;28;46979;-90
2022/10/01 10:16:31;;;;;;;;;4.67;2.67;;;;;18.94;62.71;100828.66;5041975;28;45770;-92
2022/10/01 10:18:59;;;;;;;;;2.67;2.00;;;;;19.09;62.44;100833.44;5038416;28;45318;-89
2022/10/01 10:21:33;;;;;;;;;5.00;4.00;;;;;19.22;61.94;100840.97;5032752;28;45365;-90
2022/10/01 10:24:04;;;;;;;;;4.33;2.33;;;;;19.29;62.13;100843.34;5038629;28;47685;-91
2022/10/01 10:26:37;;;;;;;;;3.00;3.00;;;;;19.33;61.34;100844.97;5041370;28;45506;-89
2022/10/01 10:29:04;;;;;;;;;3.00;3.00;;;;;19.42;61.08;100842.88;5032310;28;45545;-90
2022/10/01 10:31:49;;;;;;;;;5.33;3.33;;;;;19.50;60.78;100836.31;5034161;28;45487;-93
2022/10/01 10:34:32;;;;;;;;;2.00;2.00;;;;;19.71;60.48;100839.97;5024180;28;47313;-91
2022/10/01 10:37:00;;;;;;;;;5.00;3.00;;;;;19.79;59.73;100845.88;5036320;28;45394;-89
2022/10/01 10:39:33;;;;;;;;;3.00;3.00;;;;;19.83;59.36;100850.16;5025897;28;45336;-88
2022/10/01 10:42:00;;;;;;;;;4.00;1.00;;;;;19.88;59.61;100855.31;5033036;28;45467;-88
2022/10/01 10:44:43;;;;;;;;;2.33;2.33;;;;;19.91;59.11;100856.97;5019260;28;47284;-88
2022/10/01 10:47:31;;;;;;;;;5.33;2.67;;;;;19.97;58.71;100852.28;5023715;28;45416;-86
2022/10/01 10:50:28;;;;;;;;;2.00;0.67;;;;;20.03;58.52;100859.16;5033660;28;45431;-85
2022/10/01 10:52:54;;;;;;;;;2.33;2.33;;;;;20.14;57.90;100864.06;5022051;28;45525;-87
2022/10/01 10:55:29;;;;;;;;;4.00;3.00;;;;;20.14;57.63;100858.72;5030719;28;47695;-84
2022/10/01 10:58:49;;;;;;;;;;;;;;;;;;;;;
2022/10/01 11:13:05;;;;;;;;;3.00;2.67;;;;;20.06;56.12;100877.75;4913097;28;45477;-88
2022/10/01 11:15:36;;;;;;;;;3.00;3.00;;;;;20.09;56.06;100885.63;4967084;28;45596;-85
2022/10/01 11:19:08;;;;;;;;;3.00;1.33;;;;;20.08;55.31;100886.56;4983377;28;45480;-90
2022/10/01 11:21:47;;;;;;;;;3.00;2.67;;;;;20.11;54.88;100888.25;4955449;28;48253;-88
2022/10/01 11:24:32;;;;;;;;;3.67;2.67;;;;;20.11;54.76;100885.59;4988810;28;45337;-87
2022/10/01 11:27:25;;;;;;;;;2.00;2.00;;;;;20.18;55.02;100889.72;5033025;28;45481;-87
2022/10/01 11:30:21;;;;;;;;;;;;;;;;;;;;;
2022/10/01 11:37:34;;;;;;;;;;;;;;;;;;;;;
2022/10/01 11:40:32;;;;;;;;;;;;;;;;;;;;;
2022/10/01 11:43:30;;;;;;;;;2.67;1.00;;;;;21.07;53.70;100891.28;5020787;28;72473;-88
2022/10/01 11:46:11;;;;;;;;;3.00;2.00;;;;;21.42;52.77;100912.94;5027440;28;48125;-86
2022/10/01 11:48:52;;;;;;;;;3.00;3.00;;;;;21.87;52.06;100896.50;5040014;28;45500;-86
2022/10/01 11:51:28;;;;;;;;;3.33;2.33;;;;;22.46;50.89;100897.19;5028633;28;45522;-85
2022/10/01 11:54:05;;;;;;;;;3.00;2.67;;;;;23.67;51.08;100903.31;5037580;28;45626;-86
2022/10/01 11:59:54;;;;;;;;;4.00;1.33;;;;;28.47;45.65;100901.53;5030783;28;45237;-89
2022/10/01 12:02:24;;;;;;;;;1.00;0.00;;;;;29.84;40.97;100898.88;5026298;28;45713;-85
2022/10/01 12:05:02;;;;;;;;;4.00;3.00;;;;;29.80;38.31;100898.25;5039051;28;45419;-84
2022/10/01 12:07:48;;;;;;;;;1.00;1.00;;;;;29.10;37.28;100890.34;5020764;28;48184;-88
2022/10/01 12:10:27;;;;;;;;;2.67;1.33;;;;;28.63;36.86;100903.03;5035833;28;45359;-84
2022/10/01 12:13:21;;;;;;;;;1.33;1.00;;;;;27.63;37.37;100922.13;5033089;28;45552;-87
2022/10/01 12:16:29;;;;;;;;;0.67;0.67;;;;;27.11;38.06;100904.22;5031989;28;45696;-84